sensor_id;sensor_type;location;lat;lon;timestamp;pressure;altitude;pressure_sealevel;temperature;humidity
48404;BME280;34202;52.536;6.042;2022-08-19T00:01:05;101449.48;;;18.15;84.11
48404;BME280;34202;52.536;6.042;2022-08-19T00:06:05;101451.44;;;18.13;84.36
48404;BME280;34202;52.536;6.042;2022-08-19T00:11:06;101447.95;;;18.12;84.37
48404;BME280;34202;52.536;6.042;2022-08-19T00:16:07;101446.60;;;18.08;84.28
48404;BME280;34202;52.536;6.042;2022-08-19T00:21:07;101448.59;;;18.04;84.30
48404;BME280;34202;52.536;6.042;2022-08-19T00:26:10;101447.08;;;17.99;84.41
48404;BME280;34202;52.536;6.042;2022-08-19T00:31:10;101443.09;;;17.95;84.62
48404;BME280;34202;52.536;6.042;2022-08-19T00:36:11;101441.73;;;17.92;84.68
48404;BME280;34202;52.536;6.042;2022-08-19T00:41:18;101441.94;;;17.90;84.74
48404;BME280;34202;52.536;6.042;2022-08-19T00:46:21;101443.15;;;17.91;84.98
48404;BME280;34202;52.536;6.042;2022-08-19T00:51:25;101441.20;;;17.91;85.10
48404;BME280;34202;52.536;6.042;2022-08-19T00:56:27;101426.58;;;17.92;85.14
48404;BME280;34202;52.536;6.042;2022-08-19T01:01:28;101420.80;;;17.90;85.09
48404;BME280;34202;52.536;6.042;2022-08-19T01:06:30;101434.36;;;17.89;85.22
48404;BME280;34202;52.536;6.042;2022-08-19T01:11:35;101440.01;;;17.88;85.21
48404;BME280;34202;52.536;6.042;2022-08-19T01:16:37;101445.82;;;17.89;85.29
48404;BME280;34202;52.536;6.042;2022-08-19T01:21:48;101446.35;;;17.88;85.14
48404;BME280;34202;52.536;6.042;2022-08-19T01:26:51;101445.98;;;17.89;85.16
48404;BME280;34202;52.536;6.042;2022-08-19T01:31:51;101442.64;;;17.89;85.00
48404;BME280;34202;52.536;6.042;2022-08-19T01:36:53;101442.99;;;17.89;85.05
48404;BME280;34202;52.536;6.042;2022-08-19T01:41:53;101441.44;;;17.87;85.25
48404;BME280;34202;52.536;6.042;2022-08-19T01:46:54;101439.54;;;17.82;85.46
48404;BME280;34202;52.536;6.042;2022-08-19T01:51:55;101442.58;;;17.79;85.59
48404;BME280;34202;52.536;6.042;2022-08-19T01:57:02;101447.20;;;17.76;85.82
48404;BME280;34202;52.536;6.042;2022-08-19T02:02:05;101444.05;;;17.73;86.00
48404;BME280;34202;52.536;6.042;2022-08-19T02:07:08;101445.16;;;17.70;86.21
48404;BME280;34202;52.536;6.042;2022-08-19T02:12:09;101444.11;;;17.69;86.07
48404;BME280;34202;52.536;6.042;2022-08-19T02:17:09;101447.30;;;17.68;86.15
48404;BME280;34202;52.536;6.042;2022-08-19T02:22:10;101442.20;;;17.67;86.19
48404;BME280;34202;52.536;6.042;2022-08-19T02:27:10;101431.31;;;17.65;86.23
48404;BME280;34202;52.536;6.042;2022-08-19T02:32:11;101429.77;;;17.63;86.30
48404;BME280;34202;52.536;6.042;2022-08-19T02:37:11;101436.98;;;17.62;86.44
48404;BME280;34202;52.536;6.042;2022-08-19T02:42:32;101445.98;;;17.61;86.62
48404;BME280;34202;52.536;6.042;2022-08-19T02:47:33;101442.67;;;17.58;86.56
48404;BME280;34202;52.536;6.042;2022-08-19T02:52:34;101442.86;;;17.57;86.53
48404;BME280;34202;52.536;6.042;2022-08-19T02:57:35;101451.50;;;17.56;86.57
48404;BME280;34202;52.536;6.042;2022-08-19T03:02:36;101446.23;;;17.55;86.71
48404;BME280;34202;52.536;6.042;2022-08-19T03:07:36;101441.31;;;17.54;86.82
48404;BME280;34202;52.536;6.042;2022-08-19T03:12:39;101439.23;;;17.52;86.84
48404;BME280;34202;52.536;6.042;2022-08-19T03:17:40;101442.24;;;17.51;86.82
48404;BME280;34202;52.536;6.042;2022-08-19T03:22:40;101446.31;;;17.49;86.62
48404;BME280;34202;52.536;6.042;2022-08-19T03:27:40;101445.81;;;17.46;86.52
48404;BME280;34202;52.536;6.042;2022-08-19T03:32:41;101449.37;;;17.43;86.80
48404;BME280;34202;52.536;6.042;2022-08-19T03:37:42;101451.33;;;17.40;86.83
48404;BME280;34202;52.536;6.042;2022-08-19T03:42:42;101451.20;;;17.37;86.62
48404;BME280;34202;52.536;6.042;2022-08-19T03:47:43;101448.06;;;17.34;86.81
48404;BME280;34202;52.536;6.042;2022-08-19T03:52:48;101446.18;;;17.30;87.02
48404;BME280;34202;52.536;6.042;2022-08-19T03:57:49;101439.88;;;17.27;87.03
48404;BME280;34202;52.536;6.042;2022-08-19T04:02:50;101440.79;;;17.25;87.17
48404;BME280;34202;52.536;6.042;2022-08-19T04:07:50;101441.00;;;17.21;87.21
48404;BME280;34202;52.536;6.042;2022-08-19T04:12:50;101430.13;;;17.19;87.46
48404;BME280;34202;52.536;6.042;2022-08-19T04:17:51;101431.02;;;17.16;87.50
48404;BME280;34202;52.536;6.042;2022-08-19T04:22:51;101433.88;;;17.14;87.42
48404;BME280;34202;52.536;6.042;2022-08-19T04:27:51;101428.79;;;17.12;87.57
48404;BME280;34202;52.536;6.042;2022-08-19T04:32:52;101428.29;;;17.10;87.71
48404;BME280;34202;52.536;6.042;2022-08-19T04:37:52;101425.51;;;17.07;87.88
48404;BME280;34202;52.536;6.042;2022-08-19T04:42:53;101417.61;;;17.06;87.98
48404;BME280;34202;52.536;6.042;2022-08-19T04:47:55;101419.04;;;17.03;88.10
48404;BME280;34202;52.536;6.042;2022-08-19T04:52:57;101419.77;;;17.01;88.43
48404;BME280;34202;52.536;6.042;2022-08-19T04:57:57;101419.45;;;16.99;88.54
48404;BME280;34202;52.536;6.042;2022-08-19T05:02:58;101423.31;;;16.98;88.75
48404;BME280;34202;52.536;6.042;2022-08-19T05:07:58;101429.65;;;16.97;89.03
48404;BME280;34202;52.536;6.042;2022-08-19T05:12:58;101431.08;;;16.96;89.14
48404;BME280;34202;52.536;6.042;2022-08-19T05:17:59;101425.60;;;16.97;89.43
48404;BME280;34202;52.536;6.042;2022-08-19T05:23:18;101432.81;;;16.97;89.50
48404;BME280;34202;52.536;6.042;2022-08-19T05:28:19;101433.52;;;16.98;89.79
48404;BME280;34202;52.536;6.042;2022-08-19T05:33:20;101431.55;;;17.00;89.91
48404;BME280;34202;52.536;6.042;2022-08-19T05:38:20;101427.30;;;17.03;90.28
48404;BME280;34202;52.536;6.042;2022-08-19T05:43:21;101426.77;;;17.05;90.23
48404;BME280;34202;52.536;6.042;2022-08-19T05:48:21;101427.62;;;17.07;90.38
48404;BME280;34202;52.536;6.042;2022-08-19T05:53:21;101422.66;;;17.09;90.77
48404;BME280;34202;52.536;6.042;2022-08-19T05:58:22;101425.96;;;17.13;90.88
48404;BME280;34202;52.536;6.042;2022-08-19T06:03:23;101425.38;;;17.17;91.28
48404;BME280;34202;52.536;6.042;2022-08-19T06:08:24;101421.12;;;17.22;91.35
48404;BME280;34202;52.536;6.042;2022-08-19T06:13:25;101417.71;;;17.27;91.67
48404;BME280;34202;52.536;6.042;2022-08-19T06:18:25;101419.08;;;17.31;91.64
48404;BME280;34202;52.536;6.042;2022-08-19T06:23:26;101423.56;;;17.38;91.72
48404;BME280;34202;52.536;6.042;2022-08-19T06:28:26;101423.27;;;17.47;92.19
48404;BME280;34202;52.536;6.042;2022-08-19T06:33:26;101419.63;;;17.57;92.70
48404;BME280;34202;52.536;6.042;2022-08-19T06:38:27;101420.00;;;17.69;93.12
48404;BME280;34202;52.536;6.042;2022-08-19T06:43:27;101416.48;;;17.81;93.78
48404;BME280;34202;52.536;6.042;2022-08-19T06:48:27;101420.20;;;17.95;94.13
48404;BME280;34202;52.536;6.042;2022-08-19T06:53:28;101424.52;;;18.12;94.72
48404;BME280;34202;52.536;6.042;2022-08-19T06:58:29;101428.09;;;18.31;95.27
48404;BME280;34202;52.536;6.042;2022-08-19T07:03:34;101424.27;;;18.50;95.42
48404;BME280;34202;52.536;6.042;2022-08-19T07:08:36;101425.50;;;18.70;95.69
48404;BME280;34202;52.536;6.042;2022-08-19T07:13:37;101429.73;;;18.92;95.74
48404;BME280;34202;52.536;6.042;2022-08-19T07:18:38;101426.85;;;19.13;95.78
48404;BME280;34202;52.536;6.042;2022-08-19T07:23:39;101434.89;;;19.35;95.51
48404;BME280;34202;52.536;6.042;2022-08-19T07:28:41;101434.48;;;19.55;95.32
48404;BME280;34202;52.536;6.042;2022-08-19T07:33:43;101435.64;;;19.76;95.41
48404;BME280;34202;52.536;6.042;2022-08-19T07:38:46;101437.10;;;19.98;95.47
48404;BME280;34202;52.536;6.042;2022-08-19T07:43:49;101430.38;;;20.21;95.02
48404;BME280;34202;52.536;6.042;2022-08-19T07:48:51;101433.89;;;20.43;94.70
48404;BME280;34202;52.536;6.042;2022-08-19T07:53:52;101436.34;;;20.67;94.36
48404;BME280;34202;52.536;6.042;2022-08-19T07:58:53;101443.28;;;20.92;94.19
48404;BME280;34202;52.536;6.042;2022-08-19T08:03:55;101437.44;;;21.19;93.58
48404;BME280;34202;52.536;6.042;2022-08-19T08:09:20;101445.65;;;21.47;92.74
48404;BME280;34202;52.536;6.042;2022-08-19T08:14:26;101451.84;;;21.73;92.09
48404;BME280;34202;52.536;6.042;2022-08-19T08:19:28;101461.98;;;22.00;91.45
48404;BME280;34202;52.536;6.042;2022-08-19T08:24:30;101465.77;;;22.26;90.36
48404;BME280;34202;52.536;6.042;2022-08-19T08:29:31;101474.70;;;22.52;89.82
48404;BME280;34202;52.536;6.042;2022-08-19T08:34:31;101473.93;;;22.81;88.99
48404;BME280;34202;52.536;6.042;2022-08-19T08:39:32;101476.77;;;23.07;88.03
48404;BME280;34202;52.536;6.042;2022-08-19T08:44:49;101477.67;;;23.31;87.23
48404;BME280;34202;52.536;6.042;2022-08-19T08:49:56;101473.73;;;23.56;86.40
48404;BME280;34202;52.536;6.042;2022-08-19T08:55:04;101477.44;;;23.81;85.17
48404;BME280;34202;52.536;6.042;2022-08-19T09:00:09;101485.40;;;24.05;84.29
48404;BME280;34202;52.536;6.042;2022-08-19T09:05:11;101483.48;;;24.27;83.05
48404;BME280;34202;52.536;6.042;2022-08-19T09:10:28;101492.62;;;24.47;82.07
48404;BME280;34202;52.536;6.042;2022-08-19T09:15:35;101497.52;;;24.71;81.32
48404;BME280;34202;52.536;6.042;2022-08-19T09:20:37;101496.77;;;24.93;80.57
48404;BME280;34202;52.536;6.042;2022-08-19T09:25:37;101492.51;;;25.17;79.97
48404;BME280;34202;52.536;6.042;2022-08-19T09:30:41;101496.18;;;25.35;78.52
48404;BME280;34202;52.536;6.042;2022-08-19T09:35:41;101496.27;;;25.46;77.39
48404;BME280;34202;52.536;6.042;2022-08-19T09:40:41;101493.48;;;25.60;76.46
48404;BME280;34202;52.536;6.042;2022-08-19T09:45:42;101490.88;;;25.78;76.42
48404;BME280;34202;52.536;6.042;2022-08-19T09:50:42;101492.36;;;25.96;75.29
48404;BME280;34202;52.536;6.042;2022-08-19T09:55:43;101497.06;;;26.13;74.05
48404;BME280;34202;52.536;6.042;2022-08-19T10:00:44;101500.45;;;26.32;73.65
48404;BME280;34202;52.536;6.042;2022-08-19T10:05:46;101496.30;;;26.44;72.36
48404;BME280;34202;52.536;6.042;2022-08-19T10:10:50;101495.98;;;26.54;71.97
48404;BME280;34202;52.536;6.042;2022-08-19T10:15:52;101503.61;;;26.69;71.37
48404;BME280;34202;52.536;6.042;2022-08-19T10:21:06;101503.50;;;26.79;70.68
48404;BME280;34202;52.536;6.042;2022-08-19T10:26:08;101498.04;;;26.91;69.90
48404;BME280;34202;52.536;6.042;2022-08-19T10:31:18;101492.59;;;27.04;69.75
48404;BME280;34202;52.536;6.042;2022-08-19T10:36:28;101499.72;;;27.17;68.83
48404;BME280;34202;52.536;6.042;2022-08-19T10:41:32;101497.34;;;27.26;68.59
48404;BME280;34202;52.536;6.042;2022-08-19T10:46:36;101497.57;;;27.41;68.71
48404;BME280;34202;52.536;6.042;2022-08-19T10:51:39;101491.58;;;27.53;68.04
48404;BME280;34202;52.536;6.042;2022-08-19T10:56:58;101491.58;;;27.73;68.21
48404;BME280;34202;52.536;6.042;2022-08-19T11:02:00;101487.67;;;27.89;67.43
48404;BME280;34202;52.536;6.042;2022-08-19T11:07:00;101487.84;;;27.96;66.94
48404;BME280;34202;52.536;6.042;2022-08-19T11:12:02;101486.67;;;28.07;66.52
48404;BME280;34202;52.536;6.042;2022-08-19T11:17:04;101494.10;;;28.21;66.33
48404;BME280;34202;52.536;6.042;2022-08-19T11:22:08;101492.73;;;28.39;66.09
48404;BME280;34202;52.536;6.042;2022-08-19T11:27:10;101488.70;;;28.59;65.87
48404;BME280;34202;52.536;6.042;2022-08-19T11:32:10;101489.36;;;28.81;65.48
48404;BME280;34202;52.536;6.042;2022-08-19T11:37:11;101483.70;;;28.98;64.85
48404;BME280;34202;52.536;6.042;2022-08-19T11:42:11;101481.12;;;29.08;64.22
48404;BME280;34202;52.536;6.042;2022-08-19T11:47:30;101477.69;;;29.18;63.32
48404;BME280;34202;52.536;6.042;2022-08-19T11:52:31;101478.23;;;29.27;62.92
48404;BME280;34202;52.536;6.042;2022-08-19T11:57:31;101479.30;;;29.38;62.57
48404;BME280;34202;52.536;6.042;2022-08-19T12:02:32;101485.50;;;29.45;61.80
48404;BME280;34202;52.536;6.042;2022-08-19T12:07:34;101485.45;;;29.54;61.29
48404;BME280;34202;52.536;6.042;2022-08-19T12:12:34;101478.68;;;29.68;61.05
48404;BME280;34202;52.536;6.042;2022-08-19T12:17:35;101481.60;;;29.76;60.50
48404;BME280;34202;52.536;6.042;2022-08-19T12:22:39;101478.91;;;29.90;60.04
48404;BME280;34202;52.536;6.042;2022-08-19T12:27:41;101474.96;;;29.93;59.04
48404;BME280;34202;52.536;6.042;2022-08-19T12:32:41;101474.37;;;29.99;58.83
48404;BME280;34202;52.536;6.042;2022-08-19T12:37:41;101466.02;;;30.14;58.93
48404;BME280;34202;52.536;6.042;2022-08-19T12:42:44;101459.94;;;30.30;58.39
48404;BME280;34202;52.536;6.042;2022-08-19T12:47:45;101453.23;;;30.42;58.19
48404;BME280;34202;52.536;6.042;2022-08-19T12:52:47;101454.30;;;30.53;57.54
48404;BME280;34202;52.536;6.042;2022-08-19T12:57:48;101453.08;;;30.50;56.96
48404;BME280;34202;52.536;6.042;2022-08-19T13:02:51;101451.95;;;30.48;55.48
48404;BME280;34202;52.536;6.042;2022-08-19T13:07:53;101448.81;;;30.39;54.56
48404;BME280;34202;52.536;6.042;2022-08-19T13:12:57;101439.77;;;30.40;54.78
48404;BME280;34202;52.536;6.042;2022-08-19T13:18:00;101431.30;;;30.37;54.79
48404;BME280;34202;52.536;6.042;2022-08-19T13:23:00;101434.29;;;30.46;55.25
48404;BME280;34202;52.536;6.042;2022-08-19T13:28:01;101436.61;;;30.55;54.93
48404;BME280;34202;52.536;6.042;2022-08-19T13:33:02;101437.00;;;30.54;54.38
48404;BME280;34202;52.536;6.042;2022-08-19T13:38:13;101436.88;;;30.48;54.12
48404;BME280;34202;52.536;6.042;2022-08-19T13:43:14;101439.45;;;30.44;54.30
48404;BME280;34202;52.536;6.042;2022-08-19T13:48:15;101440.63;;;30.37;54.17
48404;BME280;34202;52.536;6.042;2022-08-19T13:53:17;101443.36;;;30.23;54.32
48404;BME280;34202;52.536;6.042;2022-08-19T13:58:17;101441.47;;;30.03;53.85
48404;BME280;34202;52.536;6.042;2022-08-19T14:03:18;101440.84;;;29.76;54.06
48404;BME280;34202;52.536;6.042;2022-08-19T14:08:18;101445.59;;;29.58;55.28
48404;BME280;34202;52.536;6.042;2022-08-19T14:13:20;101454.81;;;29.22;55.28
48404;BME280;34202;52.536;6.042;2022-08-19T14:18:21;101451.65;;;28.80;56.10
48404;BME280;34202;52.536;6.042;2022-08-19T14:23:22;101452.27;;;28.42;56.99
48404;BME280;34202;52.536;6.042;2022-08-19T14:28:22;101443.21;;;28.10;57.69
48404;BME280;34202;52.536;6.042;2022-08-19T14:33:23;101439.23;;;27.76;57.83
48404;BME280;34202;52.536;6.042;2022-08-19T14:38:23;101436.55;;;27.43;58.43
48404;BME280;34202;52.536;6.042;2022-08-19T14:43:24;101438.63;;;27.20;59.27
48404;BME280;34202;52.536;6.042;2022-08-19T14:48:24;101439.13;;;26.97;59.94
48404;BME280;34202;52.536;6.042;2022-08-19T14:53:25;101444.77;;;26.82;60.64
48404;BME280;34202;52.536;6.042;2022-08-19T14:58:26;101454.23;;;26.65;61.59
48404;BME280;34202;52.536;6.042;2022-08-19T15:03:27;101456.87;;;26.47;62.64
48404;BME280;34202;52.536;6.042;2022-08-19T15:08:29;101452.64;;;26.32;63.23
48404;BME280;34202;52.536;6.042;2022-08-19T15:13:30;101441.69;;;26.26;63.74
48404;BME280;34202;52.536;6.042;2022-08-19T15:18:30;101441.45;;;26.23;63.97
48404;BME280;34202;52.536;6.042;2022-08-19T15:23:33;101440.63;;;26.22;64.31
48404;BME280;34202;52.536;6.042;2022-08-19T15:28:34;101442.31;;;26.20;64.82
48404;BME280;34202;52.536;6.042;2022-08-19T15:33:35;101437.54;;;26.23;65.25
48404;BME280;34202;52.536;6.042;2022-08-19T15:38:40;101436.16;;;26.29;65.54
48404;BME280;34202;52.536;6.042;2022-08-19T15:43:43;101438.96;;;26.37;66.01
48404;BME280;34202;52.536;6.042;2022-08-19T15:48:44;101438.06;;;26.45;66.19
48404;BME280;34202;52.536;6.042;2022-08-19T15:53:45;101434.71;;;26.51;66.46
48404;BME280;34202;52.536;6.042;2022-08-19T15:58:45;101438.25;;;26.52;66.42
48404;BME280;34202;52.536;6.042;2022-08-19T16:04:05;101440.37;;;26.49;66.68
48404;BME280;34202;52.536;6.042;2022-08-19T16:09:27;101444.23;;;26.47;66.81
48404;BME280;34202;52.536;6.042;2022-08-19T16:14:33;101441.34;;;26.47;67.37
48404;BME280;34202;52.536;6.042;2022-08-19T16:19:34;101443.09;;;26.44;67.17
48404;BME280;34202;52.536;6.042;2022-08-19T16:24:35;101444.20;;;26.43;67.29
48404;BME280;34202;52.536;6.042;2022-08-19T16:29:36;101444.36;;;26.40;67.12
48404;BME280;34202;52.536;6.042;2022-08-19T16:34:39;101450.02;;;26.34;67.19
48404;BME280;34202;52.536;6.042;2022-08-19T16:39:40;101449.49;;;26.34;67.56
48404;BME280;34202;52.536;6.042;2022-08-19T16:44:42;101449.02;;;26.29;67.30
48404;BME280;34202;52.536;6.042;2022-08-19T16:49:44;101452.77;;;26.18;67.20
48404;BME280;34202;52.536;6.042;2022-08-19T16:54:44;101447.75;;;26.08;67.31
48404;BME280;34202;52.536;6.042;2022-08-19T16:59:45;101457.11;;;25.98;66.99
48404;BME280;34202;52.536;6.042;2022-08-19T17:04:45;101455.79;;;25.88;67.46
48404;BME280;34202;52.536;6.042;2022-08-19T17:09:47;101454.25;;;25.79;67.70
48404;BME280;34202;52.536;6.042;2022-08-19T17:14:49;101453.42;;;25.70;68.01
48404;BME280;34202;52.536;6.042;2022-08-19T17:19:50;101457.14;;;25.63;68.63
48404;BME280;34202;52.536;6.042;2022-08-19T17:24:53;101464.77;;;25.52;68.78
48404;BME280;34202;52.536;6.042;2022-08-19T17:29:54;101473.94;;;25.06;68.96
48404;BME280;34202;52.536;6.042;2022-08-19T17:34:54;101483.84;;;24.18;69.64
48404;BME280;34202;52.536;6.042;2022-08-19T17:39:54;101486.09;;;23.54;71.84
48404;BME280;34202;52.536;6.042;2022-08-19T17:44:55;101497.48;;;23.48;73.99
48404;BME280;34202;52.536;6.042;2022-08-19T17:49:58;101505.27;;;23.54;75.16
48404;BME280;34202;52.536;6.042;2022-08-19T17:54:59;101513.48;;;23.53;75.76
48404;BME280;34202;52.536;6.042;2022-08-19T18:00:00;101518.39;;;23.54;76.64
48404;BME280;34202;52.536;6.042;2022-08-19T18:05:02;101519.81;;;23.54;77.16
48404;BME280;34202;52.536;6.042;2022-08-19T18:10:04;101514.81;;;23.55;77.12
48404;BME280;34202;52.536;6.042;2022-08-19T18:15:07;101508.72;;;23.52;77.46
48404;BME280;34202;52.536;6.042;2022-08-19T18:20:11;101508.48;;;23.48;77.67
48404;BME280;34202;52.536;6.042;2022-08-19T18:25:18;101502.48;;;23.47;78.12
48404;BME280;34202;52.536;6.042;2022-08-19T18:30:24;101504.69;;;23.46;78.15
48404;BME280;34202;52.536;6.042;2022-08-19T18:35:27;101501.46;;;23.42;78.35
48404;BME280;34202;52.536;6.042;2022-08-19T18:40:28;101506.46;;;23.36;78.38
48404;BME280;34202;52.536;6.042;2022-08-19T18:45:49;101503.05;;;23.27;78.05
48404;BME280;34202;52.536;6.042;2022-08-19T18:51:10;101509.17;;;23.20;77.96
48404;BME280;34202;52.536;6.042;2022-08-19T18:56:12;101507.81;;;23.13;78.52
48404;BME280;34202;52.536;6.042;2022-08-19T19:01:17;101508.48;;;23.04;78.41
48404;BME280;34202;52.536;6.042;2022-08-19T19:06:20;101515.83;;;22.96;78.79
48404;BME280;34202;52.536;6.042;2022-08-19T19:11:24;101518.94;;;22.88;78.95
48404;BME280;34202;52.536;6.042;2022-08-19T19:16:25;101519.91;;;22.80;79.26
48404;BME280;34202;52.536;6.042;2022-08-19T19:21:27;101525.27;;;22.73;79.39
48404;BME280;34202;52.536;6.042;2022-08-19T19:26:28;101525.48;;;22.67;79.65
48404;BME280;34202;52.536;6.042;2022-08-19T19:31:28;101526.77;;;22.60;79.87
48404;BME280;34202;52.536;6.042;2022-08-19T19:36:32;101534.38;;;22.56;79.88
48404;BME280;34202;52.536;6.042;2022-08-19T19:41:33;101537.53;;;22.51;80.16
48404;BME280;34202;52.536;6.042;2022-08-19T19:46:35;101533.40;;;22.47;80.45
48404;BME280;34202;52.536;6.042;2022-08-19T19:51:36;101539.55;;;22.43;80.85
48404;BME280;34202;52.536;6.042;2022-08-19T19:56:40;101541.73;;;22.36;81.06
48404;BME280;34202;52.536;6.042;2022-08-19T20:01:44;101537.92;;;22.32;81.36
48404;BME280;34202;52.536;6.042;2022-08-19T20:06:49;101537.58;;;22.27;81.53
48404;BME280;34202;52.536;6.042;2022-08-19T20:11:53;101544.59;;;22.23;81.56
48404;BME280;34202;52.536;6.042;2022-08-19T20:16:54;101546.50;;;22.18;82.14
48404;BME280;34202;52.536;6.042;2022-08-19T20:21:55;101552.47;;;22.14;82.41
48404;BME280;34202;52.536;6.042;2022-08-19T20:26:57;101552.62;;;22.09;82.67
48404;BME280;34202;52.536;6.042;2022-08-19T20:31:57;101551.48;;;22.06;82.36
48404;BME280;34202;52.536;6.042;2022-08-19T20:36:58;101553.98;;;22.05;82.52
48404;BME280;34202;52.536;6.042;2022-08-19T20:41:58;101555.83;;;22.03;82.95
48404;BME280;34202;52.536;6.042;2022-08-19T20:47:00;101558.75;;;22.00;82.72
48404;BME280;34202;52.536;6.042;2022-08-19T20:52:02;101563.75;;;21.98;82.72
48404;BME280;34202;52.536;6.042;2022-08-19T20:57:04;101561.16;;;21.96;82.73
48404;BME280;34202;52.536;6.042;2022-08-19T21:02:04;101561.05;;;21.94;82.78
48404;BME280;34202;52.536;6.042;2022-08-19T21:07:05;101566.08;;;21.92;82.98
48404;BME280;34202;52.536;6.042;2022-08-19T21:12:07;101569.29;;;21.91;82.84
48404;BME280;34202;52.536;6.042;2022-08-19T21:17:08;101570.79;;;21.88;83.03
48404;BME280;34202;52.536;6.042;2022-08-19T21:22:08;101571.21;;;21.80;83.54
48404;BME280;34202;52.536;6.042;2022-08-19T21:27:09;101576.34;;;21.67;83.65
48404;BME280;34202;52.536;6.042;2022-08-19T21:32:10;101568.48;;;21.57;83.89
48404;BME280;34202;52.536;6.042;2022-08-19T21:37:10;101566.57;;;21.49;84.10
48404;BME280;34202;52.536;6.042;2022-08-19T21:42:11;101574.42;;;21.38;84.30
48404;BME280;34202;52.536;6.042;2022-08-19T21:47:13;101580.20;;;21.28;84.29
48404;BME280;34202;52.536;6.042;2022-08-19T21:52:20;101582.34;;;21.20;84.40
48404;BME280;34202;52.536;6.042;2022-08-19T21:57:21;101583.01;;;21.15;84.60
48404;BME280;34202;52.536;6.042;2022-08-19T22:02:23;101590.67;;;21.06;84.58
48404;BME280;34202;52.536;6.042;2022-08-19T22:07:24;101587.30;;;20.92;84.57
48404;BME280;34202;52.536;6.042;2022-08-19T22:12:31;101590.35;;;20.76;84.60
48404;BME280;34202;52.536;6.042;2022-08-19T22:17:32;101598.27;;;20.62;84.90
48404;BME280;34202;52.536;6.042;2022-08-19T22:22:33;101596.10;;;20.55;85.21
48404;BME280;34202;52.536;6.042;2022-08-19T22:27:34;101599.26;;;20.48;85.36
48404;BME280;34202;52.536;6.042;2022-08-19T22:32:35;101594.43;;;20.35;85.30
48404;BME280;34202;52.536;6.042;2022-08-19T22:37:36;101588.11;;;20.17;85.64
48404;BME280;34202;52.536;6.042;2022-08-19T22:42:37;101597.47;;;20.00;85.80
48404;BME280;34202;52.536;6.042;2022-08-19T22:47:38;101615.84;;;19.92;86.57
48404;BME280;34202;52.536;6.042;2022-08-19T22:52:39;101616.98;;;19.87;86.90
48404;BME280;34202;52.536;6.042;2022-08-19T22:57:42;101618.75;;;19.86;86.88
48404;BME280;34202;52.536;6.042;2022-08-19T23:02:42;101616.61;;;19.87;87.32
48404;BME280;34202;52.536;6.042;2022-08-19T23:07:43;101620.95;;;19.82;87.02
48404;BME280;34202;52.536;6.042;2022-08-19T23:12:46;101621.92;;;19.78;87.43
48404;BME280;34202;52.536;6.042;2022-08-19T23:17:47;101623.48;;;19.80;87.57
48404;BME280;34202;52.536;6.042;2022-08-19T23:22:48;101618.83;;;19.82;88.03
48404;BME280;34202;52.536;6.042;2022-08-19T23:27:50;101616.31;;;19.85;87.92
48404;BME280;34202;52.536;6.042;2022-08-19T23:38:21;101615.95;;;19.85;87.79
48404;BME280;34202;52.536;6.042;2022-08-19T23:43:22;101620.02;;;19.85;87.76
48404;BME280;34202;52.536;6.042;2022-08-19T23:48:24;101618.27;;;19.84;87.98
48404;BME280;34202;52.536;6.042;2022-08-19T23:53:26;101613.36;;;19.82;87.78
48404;BME280;34202;52.536;6.042;2022-08-19T23:58:26;101605.80;;;19.80;88.14
